Time;durP1;ratioP1;P1;durP2;ratioP2;P2;SDS_P1;SDS_P2;PMS_P1;PMS_P2;Temp;Humidity;BMP_temperature;BMP_pressure;BME280_temperature;BME280_humidity;BME280_pressure;Samples;Min_cycle;Max_cycle;Signal;HPM_P1;HPM_P2
2022/10/08 00:00:45;;;;;;;11.40;2.20;;;13.10;99.90;;;;;;6241104;22;20043;-84
2022/10/08 00:03:12;;;;;;;10.70;1.98;;;13.10;99.90;;;;;;6214366;23;20491;-84
2022/10/08 00:05:38;;;;;;;9.65;2.58;;;13.10;99.90;;;;;;6239183;23;20008;-84
2022/10/08 00:08:04;;;;;;;10.07;2.20;;;13.10;99.90;;;;;;6239464;23;20035;-85
2022/10/08 00:10:31;;;;;;;10.05;2.17;;;13.10;99.90;;;;;;6239654;23;20016;-85
2022/10/08 00:12:58;;;;;;;6.72;2.58;;;13.10;99.90;;;;;;6214709;23;20070;-85
2022/10/08 00:15:25;;;;;;;12.15;3.03;;;13.00;99.90;;;;;;6213888;23;20051;-85
2022/10/08 00:17:51;;;;;;;11.88;3.08;;;13.40;99.90;;;;;;6241328;22;20099;-84
2022/10/08 00:20:16;;;;;;;7.47;2.08;;;13.00;99.90;;;;;;6238750;23;20088;-84
2022/10/08 00:22:42;;;;;;;7.65;2.00;;;13.00;99.90;;;;;;6241317;22;20016;-85
2022/10/08 00:25:09;;;;;;;11.07;2.10;;;13.00;99.90;;;;;;6239276;23;20016;-85
2022/10/08 00:27:35;;;;;;;8.93;1.88;;;13.00;99.90;;;;;;6241250;22;20134;-85
2022/10/08 00:30:02;;;;;;;8.23;2.05;;;13.00;99.90;;;;;;6238997;23;20083;-85
2022/10/08 00:32:28;;;;;;;10.02;2.58;;;13.00;99.90;;;;;;6241233;23;20016;-84
2022/10/08 00:34:54;;;;;;;10.73;2.30;;;12.90;99.90;;;;;;6240710;23;20078;-85
2022/10/08 00:37:19;;;;;;;8.45;2.45;;;12.90;99.90;;;;;;6242908;23;20016;-85
2022/10/08 00:39:45;;;;;;;9.27;1.83;;;12.90;99.90;;;;;;6241364;23;20101;-85
2022/10/08 00:42:11;;;;;;;6.95;1.83;;;12.90;99.90;;;;;;6215514;23;20016;-85
2022/10/08 00:44:50;;;;;;;8.77;1.63;;;12.90;99.90;;;;;;6241355;23;20044;-84
2022/10/08 00:47:18;;;;;;;7.38;1.60;;;12.80;99.90;;;;;;6241072;23;20043;-85
2022/10/08 00:49:48;;;;;;;9.63;1.88;;;12.90;99.90;;;;;;6241034;23;20091;-84
2022/10/08 00:52:14;;;;;;;7.13;1.63;;;12.90;99.90;;;;;;6241283;23;20016;-85
2022/10/08 00:54:40;;;;;;;6.25;1.73;;;13.00;99.90;;;;;;6215953;23;20443;-84
2022/10/08 00:57:07;;;;;;;7.93;2.40;;;12.80;99.90;;;;;;6242855;22;20016;-85
2022/10/08 00:59:33;;;;;;;7.53;1.30;;;12.80;99.90;;;;;;6241287;23;20035;-85
2022/10/08 01:01:59;;;;;;;7.28;1.27;;;12.80;99.90;;;;;;6241539;23;20016;-85
2022/10/08 01:04:25;;;;;;;7.32;1.98;;;12.80;99.90;;;;;;6242296;23;20483;-85
2022/10/08 01:06:57;;;;;;;9.00;1.80;;;12.90;99.90;;;;;;6243209;23;20012;-85
2022/10/08 01:09:44;;;;;;;6.30;1.50;;;12.80;99.90;;;;;;6240922;23;20461;-84
2022/10/08 01:12:17;;;;;;;11.73;1.45;;;12.90;99.90;;;;;;6240623;23;20012;-84
2022/10/08 01:14:49;;;;;;;7.78;1.65;;;12.80;99.90;;;;;;6241246;23;20016;-84
2022/10/08 01:17:26;;;;;;;10.02;1.92;;;12.80;99.90;;;;;;6240462;23;20494;-84
2022/10/08 01:20:16;;;;;;;6.20;1.73;;;12.80;99.90;;;;;;6215594;23;20042;-85
2022/10/08 01:22:51;;;;;;;6.72;1.60;;;12.80;99.90;;;;;;6242679;22;20016;-85
2022/10/08 01:25:32;;;;;;;8.90;1.45;;;12.80;99.90;;;;;;6240652;23;20044;-84
2022/10/08 01:28:01;;;;;;;9.02;1.98;;;12.70;99.90;;;;;;6240963;23;20008;-84
2022/10/08 01:30:29;;;;;;;8.75;1.30;;;12.70;99.90;;;;;;6242466;22;20027;-85
2022/10/08 01:33:15;;;;;;;6.93;1.17;;;12.70;99.90;;;;;;6240615;23;20062;-84
2022/10/08 01:35:56;;;;;;;8.07;1.40;;;12.70;99.90;;;;;;6241029;23;20012;-84
2022/10/08 01:38:24;;;;;;;7.80;1.30;;;12.60;99.90;;;;;;6215364;23;20012;-85
2022/10/08 01:40:53;;;;;;;5.53;1.50;;;12.60;99.90;;;;;;6240711;23;20023;-85
2022/10/08 01:43:22;;;;;;;6.60;1.40;;;12.60;99.90;;;;;;6242294;22;20048;-85
2022/10/08 01:45:55;;;;;;;8.65;1.60;;;12.60;99.90;;;;;;6240170;23;20019;-85
2022/10/08 01:48:27;;;;;;;6.85;1.13;;;12.70;99.90;;;;;;6240811;23;20015;-85
2022/10/08 01:51:07;;;;;;;6.13;1.33;;;12.60;99.90;;;;;;6215516;23;20099;-85
2022/10/08 01:53:44;;;;;;;9.15;1.23;;;12.50;99.90;;;;;;6240356;23;20070;-85
2022/10/08 01:56:13;;;;;;;6.25;1.45;;;12.50;99.90;;;;;;6215083;23;20024;-85
2022/10/08 01:58:54;;;;;;;4.13;0.90;;;12.40;99.90;;;;;;6242536;22;20012;-85
2022/10/08 02:01:33;;;;;;;5.40;1.15;;;12.40;99.90;;;;;;6240408;23;20031;-85
2022/10/08 02:06:49;;;;;;;5.28;1.45;;;12.30;99.90;;;;;;6240698;23;20028;-85
2022/10/08 02:09:15;;;;;;;5.97;0.88;;;12.30;99.90;;;;;;6240448;23;20027;-85
2022/10/08 02:11:41;;;;;;;3.97;1.10;;;12.20;99.90;;;;;;6242481;23;20008;-85
2022/10/08 02:14:07;;;;;;;6.57;1.35;;;12.20;99.90;;;;;;6240433;23;20016;-85
2022/10/08 02:16:35;;;;;;;4.93;1.17;;;12.10;99.90;;;;;;6241743;23;20387;-85
2022/10/08 02:19:18;;;;;;;6.60;1.60;;;12.00;99.90;;;;;;6242164;22;20012;-85
2022/10/08 02:21:44;;;;;;;5.88;1.58;;;11.90;99.90;;;;;;6240825;23;20426;-85
2022/10/08 02:24:17;;;;;;;3.67;1.20;;;11.90;99.90;;;;;;6239830;23;20070;-85
2022/10/08 02:26:52;;;;;;;4.00;1.05;;;11.90;99.90;;;;;;6242230;22;20016;-84
2022/10/08 02:29:34;;;;;;;5.28;1.67;;;11.80;99.90;;;;;;6214477;23;20441;-85
2022/10/08 02:32:07;;;;;;;4.82;1.25;;;11.80;99.90;;;;;;6240190;23;20467;-84
2022/10/08 02:34:48;;;;;;;6.50;1.65;;;11.70;99.90;;;;;;6242526;22;20020;-85
2022/10/08 02:37:30;;;;;;;4.38;1.25;;;11.70;99.90;;;;;;6240170;23;20016;-85
2022/10/08 02:40:06;;;;;;;10.82;1.73;;;11.60;99.90;;;;;;6215207;23;20016;-85
2022/10/08 02:42:35;;;;;;;7.13;1.48;;;11.60;99.90;;;;;;6241342;22;20471;-85
2022/10/08 02:45:07;;;;;;;7.30;1.73;;;11.60;99.90;;;;;;6241155;22;20126;-85
2022/10/08 02:47:37;;;;;;;6.15;2.33;;;11.50;99.90;;;;;;6242153;22;20008;-85
2022/10/08 02:50:09;;;;;;;10.02;2.40;;;11.50;99.90;;;;;;6240310;23;20043;-85
2022/10/08 02:52:39;;;;;;;9.82;2.05;;;11.40;99.90;;;;;;6240824;23;20020;-85
2022/10/08 02:55:21;;;;;;;6.25;2.05;;;11.40;99.90;;;;;;6240873;22;20022;-85
2022/10/08 02:57:56;;;;;;;6.38;1.95;;;11.40;99.90;;;;;;6214977;23;20073;-85
2022/10/08 03:00:22;;;;;;;8.52;2.10;;;11.40;99.90;;;;;;6240683;22;20425;-85
2022/10/08 03:03:02;;;;;;;6.43;2.22;;;11.40;99.90;;;;;;6239672;23;20187;-85
2022/10/08 03:05:28;;;;;;;8.27;1.80;;;11.30;99.90;;;;;;6214687;23;20016;-85
2022/10/08 03:07:55;;;;;;;6.55;2.30;;;11.20;99.90;;;;;;6241459;23;20019;-85
2022/10/08 03:10:24;;;;;;;7.35;2.30;;;11.20;99.90;;;;;;6241493;23;20019;-85
2022/10/08 03:12:52;;;;;;;8.68;2.95;;;11.20;99.90;;;;;;6239380;23;20508;-85
2022/10/08 03:15:18;;;;;;;7.30;2.53;;;11.20;99.90;;;;;;6241699;22;20012;-85
2022/10/08 03:17:46;;;;;;;8.18;2.28;;;11.20;99.90;;;;;;6239563;23;20062;-85
2022/10/08 03:20:12;;;;;;;5.93;2.50;;;11.10;99.90;;;;;;6214926;23;20024;-85
2022/10/08 03:22:39;;;;;;;6.82;3.20;;;11.10;99.90;;;;;;6239945;23;20008;-85
2022/10/08 03:25:05;;;;;;;9.82;2.78;;;11.10;99.90;;;;;;6241210;22;20047;-84
2022/10/08 03:27:30;;;;;;;8.43;2.40;;;11.00;99.90;;;;;;6239442;23;20314;-85
2022/10/08 03:29:56;;;;;;;10.57;2.50;;;11.10;99.90;;;;;;6239646;23;20008;-85
2022/10/08 03:32:25;;;;;;;11.45;2.97;;;11.10;99.90;;;;;;6214681;23;20046;-85
2022/10/08 03:34:52;;;;;;;15.98;3.10;;;11.10;99.90;;;;;;6239715;23;20009;-85
2022/10/08 03:37:18;;;;;;;12.27;3.10;;;11.10;99.90;;;;;;6239771;23;20459;-85
2022/10/08 03:39:44;;;;;;;8.18;2.75;;;11.10;99.90;;;;;;6239285;23;20062;-85
2022/10/08 03:42:10;;;;;;;9.77;2.78;;;11.10;99.90;;;;;;6241109;22;20019;-85
2022/10/08 03:44:36;;;;;;;7.47;2.40;;;11.10;99.90;;;;;;6241409;22;20012;-85
2022/10/08 03:47:01;;;;;;;10.20;2.72;;;11.20;99.90;;;;;;6239491;23;20015;-85
2022/10/08 03:49:27;;;;;;;8.75;2.28;;;11.20;99.90;;;;;;6239662;23;20019;-85
2022/10/08 03:51:52;;;;;;;10.10;3.00;;;11.20;99.90;;;;;;6239640;23;20008;-85
2022/10/08 03:54:18;;;;;;;10.82;2.95;;;11.30;99.90;;;;;;6213689;23;20014;-85
2022/10/08 03:56:44;;;;;;;9.85;2.35;;;11.30;99.90;;;;;;6238961;23;20385;-85
2022/10/08 03:59:09;;;;;;;9.50;2.60;;;11.40;99.90;;;;;;6239247;23;20020;-85
2022/10/08 04:01:35;;;;;;;9.30;2.40;;;11.30;99.90;;;;;;6241113;23;20012;-85
2022/10/08 04:04:00;;;;;;;9.25;2.90;;;11.40;99.90;;;;;;6214015;23;20012;-85
2022/10/08 04:06:26;;;;;;;11.50;2.35;;;11.30;99.90;;;;;;6240868;23;20020;-85
2022/10/08 04:08:52;;;;;;;8.00;2.42;;;11.30;99.90;;;;;;6240075;23;20504;-85
2022/10/08 04:11:18;;;;;;;6.55;1.98;;;11.20;99.90;;;;;;6238939;23;20008;-85
2022/10/08 04:13:44;;;;;;;8.73;1.80;;;11.20;99.90;;;;;;6241368;22;20012;-85
2022/10/08 04:16:12;;;;;;;10.43;2.10;;;11.20;99.90;;;;;;6239545;23;20070;-85
2022/10/08 04:18:38;;;;;;;9.32;1.95;;;11.10;99.90;;;;;;6241242;22;20009;-85
2022/10/08 04:21:07;;;;;;;8.52;1.90;;;11.20;99.90;;;;;;6240048;23;20031;-85
2022/10/08 04:23:35;;;;;;;9.82;2.08;;;11.10;99.90;;;;;;6213789;23;20086;-85
2022/10/08 04:26:02;;;;;;;7.95;2.13;;;11.10;99.90;;;;;;6238824;23;20016;-85
2022/10/08 04:28:28;;;;;;;11.95;2.97;;;11.10;99.90;;;;;;6214139;23;20146;-85
2022/10/08 04:30:58;;;;;;;8.75;1.90;;;11.00;99.90;;;;;;6239425;23;20070;-85
2022/10/08 04:33:25;;;;;;;9.02;1.90;;;11.00;99.90;;;;;;6239463;23;20100;-85
2022/10/08 04:35:50;;;;;;;8.35;1.85;;;11.00;99.90;;;;;;6239185;23;20023;-85
2022/10/08 04:38:16;;;;;;;8.77;2.58;;;10.90;99.90;;;;;;6239145;23;20016;-85
2022/10/08 04:40:41;;;;;;;10.20;2.75;;;10.90;99.90;;;;;;6239376;23;20054;-85
2022/10/08 04:43:07;;;;;;;9.07;2.42;;;10.90;99.90;;;;;;6239493;23;20082;-85
2022/10/08 04:45:33;;;;;;;9.70;2.08;;;10.90;99.90;;;;;;6239135;23;20020;-85
2022/10/08 04:47:59;;;;;;;12.07;2.30;;;10.80;99.90;;;;;;6239487;23;20083;-85
2022/10/08 04:50:24;;;;;;;10.32;2.63;;;10.80;99.90;;;;;;6240872;23;20515;-85
2022/10/08 04:52:50;;;;;;;8.38;2.28;;;10.80;99.90;;;;;;6239574;23;20063;-86
2022/10/08 04:55:15;;;;;;;10.70;2.30;;;10.70;99.90;;;;;;6212537;23;20121;-85
2022/10/08 04:57:41;;;;;;;10.32;2.25;;;10.70;99.90;;;;;;6238994;23;20020;-85
2022/10/08 05:00:07;;;;;;;11.70;2.78;;;10.70;99.90;;;;;;6214406;23;20087;-85
2022/10/08 05:02:34;;;;;;;8.82;2.42;;;10.70;99.90;;;;;;6238611;23;20436;-85
2022/10/08 05:04:59;;;;;;;9.40;2.58;;;10.70;99.90;;;;;;6238145;23;20070;-84
2022/10/08 05:07:28;;;;;;;9.73;2.35;;;10.70;99.90;;;;;;6238870;23;20024;-85
2022/10/08 05:09:53;;;;;;;12.73;2.58;;;10.60;99.90;;;;;;6240200;22;20142;-85
2022/10/08 05:12:19;;;;;;;11.95;3.00;;;10.60;99.90;;;;;;6239722;23;20050;-85
2022/10/08 05:14:44;;;;;;;13.15;3.22;;;10.60;99.90;;;;;;6239679;23;20333;-87
2022/10/08 05:17:10;;;;;;;10.98;3.28;;;10.60;99.90;;;;;;6241611;23;20099;-86
2022/10/08 05:19:35;;;;;;;10.45;2.13;;;10.60;99.90;;;;;;6243230;23;20382;-85
2022/10/08 05:22:01;;;;;;;10.40;2.70;;;10.50;99.90;;;;;;6216397;23;20008;-86
2022/10/08 05:24:27;;;;;;;11.50;3.22;;;10.50;99.90;;;;;;6241521;23;20012;-86
2022/10/08 05:26:52;;;;;;;12.88;3.05;;;10.50;99.90;;;;;;6243786;23;20331;-86
2022/10/08 05:29:18;;;;;;;10.15;2.67;;;10.50;99.90;;;;;;6243134;23;20016;-85
2022/10/08 05:31:44;;;;;;;10.15;2.80;;;10.50;99.90;;;;;;6241085;23;20059;-83
2022/10/08 05:34:13;;;;;;;15.27;2.78;;;10.50;99.90;;;;;;6241154;23;20016;-85
2022/10/08 05:36:39;;;;;;;9.27;2.22;;;10.40;99.90;;;;;;6242583;22;20083;-86
2022/10/08 05:39:06;;;;;;;10.98;2.38;;;10.40;99.90;;;;;;6241093;23;20393;-86
2022/10/08 05:41:34;;;;;;;9.48;2.55;;;10.40;99.90;;;;;;6243479;22;20008;-85
2022/10/08 05:44:03;;;;;;;11.13;3.30;;;10.40;99.90;;;;;;6216034;23;20024;-85
2022/10/08 05:46:30;;;;;;;10.98;2.45;;;10.40;99.90;;;;;;6241284;23;20008;-85
2022/10/08 05:48:58;;;;;;;11.13;2.83;;;10.40;99.90;;;;;;6242827;22;20043;-85
2022/10/08 05:51:24;;;;;;;12.35;2.53;;;10.40;99.90;;;;;;6241089;23;20452;-85
2022/10/08 05:53:51;;;;;;;14.10;2.30;;;10.40;99.90;;;;;;6242806;22;20008;-85
2022/10/08 05:56:20;;;;;;;7.63;2.70;;;10.40;99.90;;;;;;6240432;23;20073;-85
2022/10/08 05:58:46;;;;;;;14.55;2.70;;;10.40;99.90;;;;;;6240878;23;20475;-85
2022/10/08 06:01:15;;;;;;;13.65;3.13;;;10.40;99.90;;;;;;6240347;23;20008;-85
2022/10/08 06:03:41;;;;;;;9.18;2.20;;;10.30;99.90;;;;;;6242488;22;20596;-84
2022/10/08 06:06:09;;;;;;;8.77;2.15;;;10.30;99.90;;;;;;6242608;22;20012;-86
2022/10/08 06:08:35;;;;;;;11.60;2.38;;;10.30;99.90;;;;;;6240458;23;20107;-85
2022/10/08 06:11:03;;;;;;;9.32;2.20;;;10.30;99.90;;;;;;6241241;23;20008;-85
2022/10/08 06:13:28;;;;;;;14.30;2.55;;;10.30;99.90;;;;;;6242663;22;20468;-85
2022/10/08 06:16:02;;;;;;;11.00;2.58;;;10.30;99.90;;;;;;6240611;23;20012;-85
2022/10/08 06:18:30;;;;;;;12.02;2.10;;;10.30;99.90;;;;;;6215436;23;20090;-85
2022/10/08 06:21:01;;;;;;;16.30;2.42;;;10.30;99.90;;;;;;6242562;22;20038;-84
2022/10/08 06:23:26;;;;;;;15.95;2.45;;;10.30;99.90;;;;;;6241962;22;20016;-85
2022/10/08 06:25:52;;;;;;;10.00;2.83;;;10.30;99.90;;;;;;6242056;23;20084;-84
2022/10/08 06:28:17;;;;;;;14.35;2.47;;;10.30;99.90;;;;;;6240396;23;20019;-84
2022/10/08 06:30:43;;;;;;;13.80;2.90;;;10.30;99.90;;;;;;6214541;23;20011;-84
2022/10/08 06:33:09;;;;;;;13.70;2.60;;;10.30;99.90;;;;;;6242570;23;20091;-85
2022/10/08 06:35:36;;;;;;;13.95;2.92;;;10.30;99.90;;;;;;6240343;23;20016;-84
2022/10/08 06:38:03;;;;;;;10.95;2.05;;;10.30;99.90;;;;;;6240256;23;20016;-84
2022/10/08 06:40:37;;;;;;;13.18;3.53;;;10.30;99.90;;;;;;6215702;23;20022;-83
2022/10/08 06:43:06;;;;;;;8.80;1.98;;;10.40;99.90;;;;;;6239980;23;20140;-83
2022/10/08 06:45:36;;;;;;;8.95;2.13;;;10.70;99.90;;;;;;6240980;23;20050;-84
2022/10/08 06:48:02;;;;;;;10.43;1.80;;;10.40;99.90;;;;;;6242619;22;20058;-83
2022/10/08 06:50:28;;;;;;;10.68;1.92;;;10.50;99.90;;;;;;6214916;23;20012;-84
2022/10/08 06:52:53;;;;;;;12.07;2.55;;;10.60;99.90;;;;;;6240743;23;20433;-84
2022/10/08 06:55:19;;;;;;;12.05;2.15;;;10.70;99.90;;;;;;6239724;23;20461;-84
2022/10/08 06:57:44;;;;;;;11.70;1.70;;;10.70;99.90;;;;;;6239956;23;20035;-84
2022/10/08 07:00:10;;;;;;;11.55;2.22;;;10.80;99.90;;;;;;6239976;23;20011;-84
2022/10/08 07:02:36;;;;;;;10.07;2.17;;;10.80;99.90;;;;;;6215215;23;20012;-86
2022/10/08 07:05:01;;;;;;;11.98;2.10;;;10.90;99.90;;;;;;6239683;23;20009;-84
2022/10/08 07:07:27;;;;;;;12.23;3.05;;;10.90;99.90;;;;;;6241378;23;20053;-85
2022/10/08 07:09:53;;;;;;;13.52;1.98;;;11.00;99.90;;;;;;6239049;23;20035;-86
2022/10/08 07:12:18;;;;;;;14.38;1.67;;;11.00;99.90;;;;;;6238755;23;20019;-82
2022/10/08 07:14:44;;;;;;;7.85;1.20;;;11.10;99.90;;;;;;6237705;23;20010;-81
2022/10/08 07:17:10;;;;;;;17.13;1.92;;;11.20;99.90;;;;;;6236559;23;20341;-82
2022/10/08 07:19:35;;;;;;;9.93;2.15;;;11.30;99.90;;;;;;6238061;23;20061;-82
2022/10/08 07:22:01;;;;;;;8.30;1.67;;;11.30;99.90;;;;;;6236854;23;20008;-82
2022/10/08 07:24:29;;;;;;;14.63;2.50;;;11.30;99.90;;;;;;6240904;23;20012;-82
2022/10/08 07:26:55;;;;;;;15.23;2.63;;;11.30;99.90;;;;;;6238476;23;20015;-81
2022/10/08 07:29:23;;;;;;;12.15;2.40;;;11.20;99.90;;;;;;6241461;23;20113;-82
2022/10/08 07:31:49;;;;;;;9.68;1.77;;;11.30;99.90;;;;;;6214299;23;20362;-82
2022/10/08 07:34:15;;;;;;;10.35;1.88;;;11.30;99.90;;;;;;6213456;23;20366;-82
2022/10/08 07:36:41;;;;;;;12.35;2.25;;;11.30;99.90;;;;;;6240072;23;20027;-82
2022/10/08 07:39:14;;;;;;;12.35;3.35;;;11.30;99.90;;;;;;6240869;22;20016;-82
2022/10/08 07:41:40;;;;;;;9.77;2.60;;;11.30;99.90;;;;;;6240195;22;20405;-82
2022/10/08 07:44:07;;;;;;;10.05;3.08;;;11.30;99.90;;;;;;6239632;23;20026;-82
2022/10/08 07:46:35;;;;;;;12.18;2.13;;;11.20;99.90;;;;;;6239802;23;20019;-82
2022/10/08 07:49:01;;;;;;;13.55;2.03;;;11.50;99.90;;;;;;6213483;23;20023;-82
2022/10/08 07:51:30;;;;;;;11.88;2.10;;;11.20;99.90;;;;;;6241735;22;20004;-82
2022/10/08 07:53:56;;;;;;;8.77;1.50;;;11.20;99.90;;;;;;6241194;22;20090;-81
2022/10/08 07:56:22;;;;;;;9.05;2.00;;;11.20;99.90;;;;;;6241864;22;20105;-82
2022/10/08 07:58:49;;;;;;;8.00;1.70;;;11.20;99.90;;;;;;6239785;23;20020;-82
2022/10/08 08:01:18;;;;;;;7.85;2.05;;;11.20;99.90;;;;;;6239557;23;20350;-82
2022/10/08 08:03:44;;;;;;;9.52;1.83;;;11.30;99.90;;;;;;6240706;22;20380;-82
2022/10/08 08:06:13;;;;;;;11.60;2.40;;;11.20;99.90;;;;;;6213743;23;20408;-82
2022/10/08 08:08:40;;;;;;;10.43;2.05;;;11.20;99.90;;;;;;6241393;22;20012;-82
2022/10/08 08:11:08;;;;;;;9.88;1.77;;;11.30;99.90;;;;;;6240672;22;20449;-82
2022/10/08 08:13:35;;;;;;;11.02;1.60;;;11.30;99.90;;;;;;6241640;22;20057;-82
2022/10/08 08:16:05;;;;;;;13.77;2.17;;;11.30;99.90;;;;;;6239640;23;20417;-82
2022/10/08 08:18:34;;;;;;;13.07;1.92;;;11.40;99.90;;;;;;6240912;22;20020;-81
2022/10/08 08:21:08;;;;;;;14.98;1.75;;;11.40;99.90;;;;;;6239146;23;20015;-82
2022/10/08 08:23:40;;;;;;;10.02;1.95;;;11.50;99.90;;;;;;6214263;23;20044;-82
2022/10/08 08:26:09;;;;;;;7.72;1.60;;;11.50;99.90;;;;;;6241419;23;20012;-82
2022/10/08 08:28:35;;;;;;;9.75;2.00;;;11.60;99.90;;;;;;6241707;22;20055;-82
2022/10/08 08:31:16;;;;;;;10.27;2.15;;;11.70;99.90;;;;;;6239182;23;20016;-81
2022/10/08 08:33:46;;;;;;;9.45;1.52;;;11.70;99.90;;;;;;6240800;22;20050;-82
2022/10/08 08:36:12;;;;;;;10.02;1.63;;;11.80;99.90;;;;;;6239592;23;20039;-82
2022/10/08 08:38:38;;;;;;;6.82;1.30;;;11.90;99.90;;;;;;6239199;23;20016;-82
2022/10/08 08:41:21;;;;;;;12.38;2.00;;;11.90;99.90;;;;;;6214209;23;20341;-82
2022/10/08 08:43:47;;;;;;;7.68;1.35;;;12.00;99.90;;;;;;6241431;22;20009;-82
2022/10/08 08:46:18;;;;;;;8.52;1.60;;;12.00;99.90;;;;;;6240869;23;20024;-82
2022/10/08 08:48:45;;;;;;;9.98;1.48;;;12.20;99.90;;;;;;6241242;22;20016;-81
2022/10/08 08:51:11;;;;;;;8.30;1.10;;;12.20;99.90;;;;;;6240958;22;20062;-82
2022/10/08 08:53:37;;;;;;;9.35;1.45;;;12.30;99.90;;;;;;6242604;22;20019;-81
2022/10/08 08:56:06;;;;;;;11.65;1.27;;;12.30;99.90;;;;;;6242833;22;20145;-82
2022/10/08 08:58:51;;;;;;;13.82;1.55;;;12.40;99.90;;;;;;6243152;22;20012;-81
2022/10/08 09:01:32;;;;;;;6.97;1.80;;;12.50;99.90;;;;;;6242747;23;20099;-81
2022/10/08 09:04:30;;;;;;;8.25;1.52;;;12.60;99.90;;;;;;6241406;22;20532;-82
2022/10/08 09:06:58;;;;;;;7.55;1.20;;;12.80;99.90;;;;;;6242664;22;20019;-82
2022/10/08 09:10:04;;;;;;;6.25;0.98;;;12.90;99.90;;;;;;6239797;23;20121;-82
2022/10/08 09:12:37;;;;;;;5.93;1.00;;;13.00;99.90;;;;;;6177176;22;20035;-82
2022/10/08 09:15:12;;;;;;;7.20;1.02;;;13.20;99.90;;;;;;6240550;23;20008;-82
2022/10/08 09:17:39;;;;;;;8.05;0.93;;;13.30;99.90;;;;;;6242873;22;20012;-82
2022/10/08 09:20:05;;;;;;;5.30;1.20;;;13.40;99.90;;;;;;6242928;22;20016;-82
2022/10/08 09:22:40;;;;;;;7.70;1.00;;;13.50;99.90;;;;;;6240940;23;20018;-82
2022/10/08 09:25:23;;;;;;;10.02;1.08;;;13.70;99.90;;;;;;6241744;23;20019;-82
2022/10/08 09:27:57;;;;;;;11.38;1.38;;;13.80;99.90;;;;;;6243190;22;20082;-82
2022/10/08 09:30:25;;;;;;;12.97;1.03;;;14.00;99.90;;;;;;6240496;23;20062;-82
2022/10/08 09:32:57;;;;;;;5.10;1.00;;;14.70;99.90;;;;;;6242384;23;20513;-82
2022/10/08 09:35:23;;;;;;;8.15;1.17;;;14.30;99.90;;;;;;6215558;23;20091;-81
2022/10/08 09:37:50;;;;;;;18.17;1.30;;;14.50;99.90;;;;;;6215855;23;20016;-82
2022/10/08 09:40:25;;;;;;;10.55;1.38;;;14.60;99.90;;;;;;6241348;23;20091;-82
2022/10/08 09:43:20;;;;;;;6.80;1.00;;;14.70;99.90;;;;;;6240397;23;20020;-82
2022/10/08 09:45:47;;;;;;;5.85;0.85;;;14.80;99.90;;;;;;6208349;23;20016;-82
2022/10/08 09:48:27;;;;;;;4.88;0.60;;;14.90;99.90;;;;;;6242764;22;20016;-82
2022/10/08 09:51:02;;;;;;;6.47;0.57;;;15.00;99.90;;;;;;6242506;22;20047;-82
2022/10/08 09:53:40;;;;;;;9.43;1.30;;;15.30;99.90;;;;;;6242908;22;20012;-82
2022/10/08 09:56:07;;;;;;;5.13;0.70;;;15.40;99.90;;;;;;6241046;23;20026;-82
2022/10/08 09:58:39;;;;;;;4.07;0.70;;;15.90;99.90;;;;;;6242533;22;20022;-82
2022/10/08 10:01:13;;;;;;;8.02;1.40;;;15.80;99.90;;;;;;6242623;22;20012;-82
2022/10/08 10:03:40;;;;;;;9.48;0.90;;;15.90;99.90;;;;;;6242198;22;20012;-82
2022/10/08 10:06:06;;;;;;;6.13;0.90;;;15.90;99.90;;;;;;6242778;22;20012;-82
2022/10/08 10:08:47;;;;;;;5.40;0.80;;;16.00;99.90;;;;;;6242214;23;20058;-82
2022/10/08 10:11:35;;;;;;;4.70;0.70;;;16.10;99.90;;;;;;6242638;22;20024;-82
2022/10/08 10:14:13;;;;;;;6.22;1.00;;;16.30;99.90;;;;;;6241558;22;20090;-82
2022/10/08 10:16:42;;;;;;;9.15;1.05;;;16.50;99.90;;;;;;6242556;22;20008;-82
2022/10/08 10:19:28;;;;;;;5.57;0.85;;;16.60;99.90;;;;;;6241783;22;20464;-82
2022/10/08 10:22:09;;;;;;;8.32;1.20;;;16.80;99.90;;;;;;6241721;22;20453;-82
2022/10/08 10:25:01;;;;;;;9.32;1.58;;;16.90;99.90;;;;;;6242650;22;20027;-82
2022/10/08 10:27:28;;;;;;;8.25;0.85;;;16.60;99.90;;;;;;6240313;23;20016;-82
2022/10/08 10:30:22;;;;;;;10.43;0.98;;;16.20;99.90;;;;;;6239963;23;20004;-82
2022/10/08 10:33:03;;;;;;;8.02;1.13;;;15.90;99.90;;;;;;6240456;23;20015;-82
2022/10/08 10:35:31;;;;;;;9.20;1.02;;;15.60;99.90;;;;;;6242597;22;20044;-82
2022/10/08 10:38:08;;;;;;;9.35;1.30;;;15.70;99.90;;;;;;6241841;22;20004;-82
2022/10/08 10:40:39;;;;;;;8.73;1.23;;;15.60;99.90;;;;;;6242380;23;20012;-82
2022/10/08 10:43:28;;;;;;;6.28;1.05;;;15.50;99.90;;;;;;6239125;23;20095;-82
2022/10/08 10:46:05;;;;;;;5.15;0.90;;;15.50;99.90;;;;;;6240227;23;20016;-82
2022/10/08 10:48:31;;;;;;;7.25;0.90;;;15.60;99.90;;;;;;6240522;23;20012;-82
2022/10/08 10:51:18;;;;;;;8.65;1.20;;;15.70;99.90;;;;;;6241539;23;20016;-82
2022/10/08 10:54:21;;;;;;;7.05;0.98;;;15.80;99.90;;;;;;6239991;23;20020;-82
2022/10/08 10:56:53;;;;;;;10.70;1.27;;;15.80;99.90;;;;;;6241298;23;20023;-82
2022/10/08 10:59:45;;;;;;;8.30;1.23;;;15.60;99.90;;;;;;6215021;23;20070;-82
2022/10/08 11:02:29;;;;;;;7.40;0.68;;;15.40;99.90;;;;;;6241759;22;20027;-82
2022/10/08 11:05:22;;;;;;;8.30;1.55;;;15.50;99.90;;;;;;6242485;22;20431;-82
2022/10/08 11:08:06;;;;;;;10.07;1.23;;;15.60;99.90;;;;;;6241673;22;20430;-82
2022/10/08 11:10:52;;;;;;;7.72;1.15;;;15.80;99.90;;;;;;6240182;23;20048;-82
2022/10/08 11:13:21;;;;;;;7.00;1.13;;;16.00;99.90;;;;;;6240964;22;20091;-82
2022/10/08 11:15:49;;;;;;;9.23;1.10;;;16.10;99.90;;;;;;6241236;23;20046;-82
2022/10/08 11:18:29;;;;;;;5.70;0.60;;;16.20;99.90;;;;;;6241633;23;20444;-82
2022/10/08 11:21:16;;;;;;;6.63;0.95;;;16.20;99.90;;;;;;6241489;23;20168;-82
2022/10/08 11:24:00;;;;;;;7.60;0.88;;;16.00;99.90;;;;;;6239633;23;20445;-82
2022/10/08 11:27:02;;;;;;;8.02;1.02;;;15.90;99.90;;;;;;6241010;23;20095;-82
2022/10/08 11:29:45;;;;;;;5.90;1.00;;;16.10;99.90;;;;;;6241905;23;20330;-82
2022/10/08 11:32:13;;;;;;;7.10;1.35;;;16.30;99.90;;;;;;6239815;23;20087;-82
2022/10/08 11:34:47;;;;;;;9.07;1.00;;;16.60;99.90;;;;;;6239522;23;20012;-82
2022/10/08 11:37:49;;;;;;;6.25;0.80;;;16.80;99.90;;;;;;6241494;22;20436;-82
2022/10/08 11:40:25;;;;;;;5.28;0.80;;;16.90;99.90;;;;;;6240856;22;20508;-82
2022/10/08 11:43:10;;;;;;;16.00;1.58;;;16.90;99.90;;;;;;6241228;22;20042;-82
2022/10/08 11:45:38;;;;;;;9.68;1.10;;;16.90;99.90;;;;;;6214412;23;20019;-83
2022/10/08 11:48:34;;;;;;;8.93;1.05;;;17.00;99.90;;;;;;6239531;23;20016;-83
2022/10/08 11:51:18;;;;;;;8.15;1.02;;;17.10;99.90;;;;;;6240631;22;20732;-82
2022/10/08 11:54:04;;;;;;;11.18;1.10;;;17.50;99.90;;;;;;6238946;22;20023;-84
2022/10/08 11:56:31;;;;;;;10.00;0.98;;;17.40;99.90;;;;;;6239139;23;20027;-82
2022/10/08 11:59:02;;;;;;;9.27;1.15;;;17.50;99.90;;;;;;6239530;23;20503;-83
2022/10/08 12:01:28;;;;;;;8.65;1.05;;;17.50;99.90;;;;;;6241307;22;20445;-84
2022/10/08 12:03:59;;;;;;;8.70;0.95;;;17.60;99.90;;;;;;6239439;23;20026;-84
2022/10/08 12:06:28;;;;;;;10.25;1.20;;;17.80;99.90;;;;;;6241147;23;20467;-84
2022/10/08 12:09:04;;;;;;;5.80;0.70;;;17.90;99.90;;;;;;6240753;22;20465;-85
2022/10/08 12:11:39;;;;;;;5.75;0.75;;;18.10;99.90;;;;;;6238617;23;20059;-84
2022/10/08 12:14:10;;;;;;;;;;;18.10;99.90;;;;;;6240136;23;20517;-84
2022/10/08 12:16:57;;;;;;;7.18;1.00;;;18.20;99.90;;;;;;6239552;23;20002;-84
2022/10/08 12:19:35;;;;;;;9.60;1.10;;;18.10;99.90;;;;;;6239283;23;20348;-84
2022/10/08 12:22:03;;;;;;;6.10;1.05;;;18.20;99.90;;;;;;6241527;23;20016;-84
2022/10/08 12:24:38;;;;;;;7.28;1.10;;;18.30;99.90;;;;;;6239000;23;20020;-84
2022/10/08 12:27:20;;;;;;;8.45;1.02;;;18.30;99.90;;;;;;6241536;23;20095;-83
2022/10/08 12:30:12;;;;;;;19.58;3.08;;;18.30;99.90;;;;;;6244263;22;20008;-86
2022/10/08 12:32:41;;;;;;;8.13;1.58;;;18.00;99.90;;;;;;6242674;23;20011;-86
2022/10/08 12:35:39;;;;;;;10.40;1.77;;;17.60;99.90;;;;;;6242703;23;20027;-87
2022/10/08 12:38:33;;;;;;;7.20;0.98;;;17.20;99.90;;;;;;6241762;23;20031;-86
2022/10/08 12:40:59;;;;;;;14.57;1.20;;;16.80;99.90;;;;;;6243513;23;20069;-86
2022/10/08 12:44:41;;;;;;;6.85;1.00;;;16.50;99.90;;;;;;6218347;23;20020;-86
2022/10/08 12:47:34;;;;;;;9.13;1.40;;;16.20;99.90;;;;;;6062866;23;20011;-85
2022/10/08 12:50:21;;;;;;;9.15;1.27;;;15.80;99.90;;;;;;6062393;23;20114;-87
2022/10/08 12:52:47;;;;;;;10.77;1.10;;;15.60;99.90;;;;;;6038051;23;20019;-84
2022/10/08 12:55:17;;;;;;;10.00;1.75;;;15.50;99.90;;;;;;6062844;23;20026;-83
2022/10/08 12:57:43;;;;;;;11.63;1.15;;;15.50;99.90;;;;;;6062471;23;20019;-84
2022/10/08 13:00:27;;;;;;;9.80;1.25;;;15.70;99.90;;;;;;6062806;23;20015;-84
2022/10/08 13:03:05;;;;;;;8.93;1.20;;;15.80;99.90;;;;;;6062884;23;20022;-84
2022/10/08 13:05:32;;;;;;;14.27;1.13;;;15.90;99.90;;;;;;6062658;23;20025;-84
2022/10/08 13:08:15;;;;;;;6.47;0.90;;;16.00;99.90;;;;;;6062140;23;20086;-84